createdAt,value
2018-12-31T00:00:14.262Z,4.62
2018-12-31T00:01:14.248Z,4.63
2018-12-31T00:02:14.239Z,4.55
2018-12-31T00:03:14.233Z,4.65
2018-12-31T00:04:14.244Z,4.62
2018-12-31T00:05:14.207Z,4.58
2018-12-31T00:06:14.219Z,4.59
2018-12-31T00:07:14.184Z,4.59
2018-12-31T00:08:14.170Z,4.62
2018-12-31T00:09:14.198Z,4.60
2018-12-31T00:10:14.149Z,4.55
2018-12-31T00:11:14.138Z,4.60
2018-12-31T00:12:14.126Z,4.65
2018-12-31T00:13:14.117Z,4.59
2018-12-31T00:14:14.105Z,4.62
2018-12-31T00:15:14.117Z,4.58
2018-12-31T00:16:14.083Z,4.51
2018-12-31T00:17:14.070Z,4.44
2018-12-31T00:18:14.063Z,4.44
2018-12-31T00:19:14.049Z,4.42
2018-12-31T00:20:14.074Z,4.45
2018-12-31T00:21:14.043Z,4.45
2018-12-31T00:22:14.016Z,4.44
2018-12-31T00:23:14.004Z,4.44
2018-12-31T00:24:13.994Z,4.41
2018-12-31T00:25:14.010Z,4.47
2018-12-31T00:26:13.973Z,4.45
2018-12-31T00:27:13.961Z,4.51
2018-12-31T00:28:13.953Z,4.51
2018-12-31T00:29:13.955Z,4.50
2018-12-31T00:30:13.963Z,4.48
2018-12-31T00:31:13.917Z,4.54
2018-12-31T00:32:13.908Z,4.51
2018-12-31T00:33:13.894Z,4.48
2018-12-31T00:34:13.883Z,4.58
2018-12-31T00:35:13.872Z,4.50
2018-12-31T00:36:13.884Z,4.54
2018-12-31T00:37:13.848Z,4.50
2018-12-31T00:38:13.840Z,4.50
2018-12-31T00:39:13.826Z,4.54
2018-12-31T00:40:13.817Z,4.48
2018-12-31T00:41:13.840Z,4.47
2018-12-31T00:42:13.796Z,4.51
2018-12-31T00:43:13.782Z,4.51
2018-12-31T00:44:13.771Z,4.51
2018-12-31T00:45:13.761Z,4.55
2018-12-31T00:46:13.749Z,4.51
2018-12-31T00:47:13.765Z,4.48
2018-12-31T00:48:13.728Z,4.52
2018-12-31T00:49:13.717Z,4.52
2018-12-31T00:50:13.719Z,4.55
2018-12-31T00:51:13.696Z,4.50
2018-12-31T00:52:13.716Z,4.52
2018-12-31T00:53:13.674Z,4.51
2018-12-31T00:54:13.660Z,4.54
2018-12-31T00:55:13.654Z,4.52
2018-12-31T00:56:13.639Z,4.58
2018-12-31T00:57:13.661Z,4.59
2018-12-31T00:58:13.615Z,4.59
2018-12-31T00:59:13.605Z,4.54
2018-12-31T01:00:13.597Z,4.48
2018-12-31T01:01:13.583Z,4.51
2018-12-31T01:02:13.572Z,4.48
2018-12-31T01:03:13.585Z,4.45
2018-12-31T01:04:13.550Z,4.41
2018-12-31T01:05:13.545Z,4.37
2018-12-31T01:06:13.527Z,4.34
2018-12-31T01:07:13.515Z,4.36
2018-12-31T01:08:13.529Z,4.27
2018-12-31T01:09:13.493Z,4.30
2018-12-31T01:10:13.485Z,4.29
2018-12-31T01:11:13.470Z,4.27
2018-12-31T01:12:13.461Z,4.29
2018-12-31T01:13:13.486Z,4.27
2018-12-31T01:14:13.438Z,4.32
2018-12-31T01:15:13.450Z,4.23
2018-12-31T01:16:13.414Z,4.23
2018-12-31T01:17:13.406Z,4.32
2018-12-31T01:18:13.392Z,4.23
2018-12-31T01:19:13.409Z,4.16
2018-12-31T01:20:13.370Z,4.14
2018-12-31T01:21:13.361Z,4.14
2018-12-31T01:22:13.348Z,4.15
2018-12-31T01:23:13.337Z,4.11
2018-12-31T01:24:13.354Z,4.22
2018-12-31T01:25:13.315Z,4.18
2018-12-31T01:26:13.308Z,4.16
2018-12-31T01:27:13.298Z,4.24
2018-12-31T01:28:13.296Z,4.24
2018-12-31T01:29:13.309Z,4.27
2018-12-31T01:30:13.260Z,4.27
2018-12-31T01:31:13.250Z,4.29
2018-12-31T01:32:13.240Z,4.29
2018-12-31T01:33:13.229Z,4.30
2018-12-31T01:34:13.222Z,4.34
2018-12-31T01:35:13.235Z,4.30
2018-12-31T01:36:13.199Z,4.27
2018-12-31T01:37:13.184Z,4.27
2018-12-31T01:38:13.173Z,4.27
2018-12-31T01:39:13.164Z,4.27
2018-12-31T01:40:13.181Z,4.30
2018-12-31T01:41:13.144Z,4.27
2018-12-31T01:42:13.140Z,4.30
2018-12-31T01:43:13.119Z,4.29
2018-12-31T01:44:13.110Z,4.33
2018-12-31T01:45:13.137Z,4.26
2018-12-31T01:46:13.085Z,4.30
2018-12-31T01:47:13.074Z,4.33
2018-12-31T01:48:13.062Z,4.26
2018-12-31T01:49:13.053Z,4.24
2018-12-31T01:50:13.041Z,4.24
2018-12-31T01:51:13.056Z,4.29
2018-12-31T01:52:13.019Z,4.29
2018-12-31T01:53:13.008Z,4.30
2018-12-31T01:54:12.997Z,4.27
2018-12-31T01:55:12.985Z,4.32
2018-12-31T01:56:12.998Z,4.26
2018-12-31T01:57:12.965Z,4.36
2018-12-31T01:58:12.954Z,4.27
2018-12-31T01:59:12.940Z,4.34
2018-12-31T02:00:12.930Z,4.36
2018-12-31T02:01:12.960Z,4.36
2018-12-31T02:02:12.909Z,4.36
2018-12-31T02:03:12.900Z,4.32
2018-12-31T02:04:12.885Z,4.34
2018-12-31T02:05:12.875Z,4.33
2018-12-31T02:06:12.861Z,4.33
2018-12-31T02:07:12.877Z,4.30
2018-12-31T02:08:12.843Z,4.30
2018-12-31T02:09:12.830Z,4.32
2018-12-31T02:10:12.818Z,4.27
2018-12-31T02:11:12.807Z,4.32
2018-12-31T02:12:12.824Z,4.32
2018-12-31T02:13:12.785Z,4.29
2018-12-31T02:14:12.790Z,4.27
2018-12-31T02:15:12.762Z,4.33
2018-12-31T02:16:12.752Z,4.24
2018-12-31T02:17:12.777Z,4.29
2018-12-31T02:18:12.728Z,4.29
2018-12-31T02:19:12.719Z,4.29
2018-12-31T02:20:12.713Z,4.29
2018-12-31T02:21:12.697Z,4.26
2018-12-31T02:22:12.689Z,4.27
2018-12-31T02:23:12.703Z,4.29
2018-12-31T02:24:12.664Z,4.24
2018-12-31T02:25:12.652Z,4.30
2018-12-31T02:26:13.681Z,4.26
2018-12-31T02:27:12.629Z,4.27
2018-12-31T02:28:12.645Z,4.26
2018-12-31T02:29:12.611Z,4.32
2018-12-31T02:30:12.597Z,4.40
2018-12-31T02:31:12.583Z,4.40
2018-12-31T02:32:14.433Z,4.40
2018-12-31T02:33:12.597Z,4.37
2018-12-31T02:34:12.559Z,4.37
2018-12-31T02:35:12.541Z,4.42
2018-12-31T02:36:12.529Z,4.45
2018-12-31T02:37:12.544Z,4.41
2018-12-31T02:38:12.509Z,4.36
2018-12-31T02:39:12.543Z,4.37
2018-12-31T02:40:12.492Z,4.37
2018-12-31T02:41:12.485Z,4.37
2018-12-31T02:42:12.466Z,4.41
2018-12-31T02:43:12.451Z,4.37
2018-12-31T02:44:12.472Z,4.37
2018-12-31T02:45:12.431Z,4.33
2018-12-31T02:46:12.423Z,4.40
2018-12-31T02:47:12.407Z,4.33
2018-12-31T02:48:12.401Z,4.40
2018-12-31T02:49:12.421Z,4.36
2018-12-31T02:50:12.377Z,4.41
2018-12-31T02:51:12.368Z,4.36
2018-12-31T02:52:12.352Z,4.44
2018-12-31T02:53:12.342Z,4.47
2018-12-31T02:54:12.330Z,4.40
2018-12-31T02:55:12.345Z,4.40
2018-12-31T02:56:12.308Z,4.37
2018-12-31T02:57:12.297Z,4.44
2018-12-31T02:58:12.286Z,4.50
2018-12-31T02:59:12.278Z,4.44
2018-12-31T03:00:12.299Z,4.41
2018-12-31T03:01:12.253Z,4.42
2018-12-31T03:02:12.246Z,4.47
2018-12-31T03:03:12.233Z,4.44
2018-12-31T03:04:12.229Z,4.45
2018-12-31T03:05:12.208Z,4.47
2018-12-31T03:06:12.223Z,4.45
2018-12-31T03:07:12.186Z,4.41
2018-12-31T03:08:12.176Z,4.36
2018-12-31T03:09:12.165Z,4.44
2018-12-31T03:10:12.152Z,4.42
2018-12-31T03:11:12.179Z,4.37
2018-12-31T03:12:12.130Z,4.34
2018-12-31T03:13:12.120Z,4.30
2018-12-31T03:14:12.109Z,4.29
2018-12-31T03:15:12.100Z,4.32
2018-12-31T03:16:12.085Z,4.37
2018-12-31T03:17:12.101Z,4.33
2018-12-31T03:18:12.063Z,4.36
2018-12-31T03:19:12.054Z,4.41
2018-12-31T03:20:12.041Z,4.32
2018-12-31T03:21:12.032Z,4.30
2018-12-31T03:22:12.057Z,4.30
2018-12-31T03:23:12.011Z,4.27
2018-12-31T03:24:12.000Z,4.29
2018-12-31T03:25:11.984Z,4.26
2018-12-31T03:26:11.981Z,4.29
2018-12-31T03:27:11.963Z,4.26
2018-12-31T03:28:11.989Z,4.30
2018-12-31T03:29:11.943Z,4.26
2018-12-31T03:30:11.937Z,4.30
2018-12-31T03:31:11.920Z,4.20
2018-12-31T03:32:11.918Z,4.20
2018-12-31T03:33:11.902Z,4.29
2018-12-31T03:34:11.926Z,4.24
2018-12-31T03:35:11.877Z,4.27
2018-12-31T03:36:11.866Z,4.30
2018-12-31T03:37:11.854Z,4.30
2018-12-31T03:38:11.845Z,4.30
2018-12-31T03:39:11.882Z,4.29
2018-12-31T03:40:11.857Z,4.27
2018-12-31T03:41:11.810Z,4.27
2018-12-31T03:42:11.807Z,4.27
2018-12-31T03:43:11.790Z,4.30
2018-12-31T03:44:11.778Z,4.29
2018-12-31T03:45:11.767Z,4.33
2018-12-31T03:46:11.801Z,4.36
2018-12-31T03:47:12.395Z,4.26
2018-12-31T03:48:11.734Z,4.32
2018-12-31T03:49:11.725Z,4.27
2018-12-31T03:50:11.715Z,4.30
2018-12-31T03:51:11.701Z,4.30
2018-12-31T03:52:11.727Z,4.27
2018-12-31T03:53:11.681Z,4.30
2018-12-31T03:54:11.668Z,4.33
2018-12-31T03:55:11.658Z,4.23
2018-12-31T03:56:11.673Z,4.36
2018-12-31T03:57:11.638Z,4.42
2018-12-31T03:58:11.663Z,4.33
2018-12-31T03:59:11.620Z,4.36
2018-12-31T04:00:11.607Z,4.37
2018-12-31T04:01:11.596Z,4.34
2018-12-31T04:02:11.591Z,4.37
2018-12-31T04:03:11.570Z,4.33
2018-12-31T04:04:11.587Z,4.29
2018-12-31T04:05:11.548Z,4.29
2018-12-31T04:06:11.539Z,4.27
2018-12-31T04:07:11.530Z,4.26
2018-12-31T04:08:11.554Z,4.27
2018-12-31T04:09:11.505Z,4.26
2018-12-31T04:10:11.493Z,4.29
2018-12-31T04:11:11.481Z,4.27
2018-12-31T04:12:11.481Z,4.29
2018-12-31T04:13:11.461Z,4.27
2018-12-31T04:14:11.488Z,4.29
2018-12-31T04:15:11.438Z,4.33
2018-12-31T04:16:11.426Z,4.29
2018-12-31T04:17:11.421Z,4.30
2018-12-31T04:18:11.408Z,4.26
2018-12-31T04:19:11.399Z,4.27
2018-12-31T04:20:11.439Z,4.30
2018-12-31T04:21:11.373Z,4.40
2018-12-31T04:22:11.361Z,4.30
2018-12-31T04:23:11.349Z,4.30
2018-12-31T04:24:11.337Z,4.33
2018-12-31T04:25:11.362Z,4.41
2018-12-31T04:26:11.314Z,4.34
2018-12-31T04:27:11.304Z,4.33
2018-12-31T04:28:11.295Z,4.40
2018-12-31T04:29:11.281Z,4.33
2018-12-31T04:30:11.272Z,4.32
2018-12-31T04:31:11.283Z,4.42
2018-12-31T04:32:11.249Z,4.34
2018-12-31T04:33:11.237Z,4.34
2018-12-31T04:34:11.226Z,4.41
2018-12-31T04:35:11.217Z,4.41
2018-12-31T04:36:11.242Z,4.41
2018-12-31T04:37:11.193Z,4.45
2018-12-31T04:38:11.180Z,4.45
2018-12-31T04:39:11.169Z,4.48
2018-12-31T04:40:11.160Z,4.51
2018-12-31T04:41:11.147Z,4.50
2018-12-31T04:42:11.175Z,4.54
2018-12-31T04:43:11.125Z,4.51
2018-12-31T04:44:11.115Z,4.47
2018-12-31T04:45:11.124Z,4.47
2018-12-31T04:46:11.091Z,4.44
2018-12-31T04:47:11.082Z,4.41
2018-12-31T04:48:11.096Z,4.44
2018-12-31T04:49:11.060Z,4.42
2018-12-31T04:50:11.048Z,4.52
2018-12-31T04:51:11.037Z,4.42
2018-12-31T04:52:11.028Z,4.44
2018-12-31T04:53:11.039Z,4.45
2018-12-31T04:54:11.003Z,4.50
2018-12-31T04:55:10.995Z,4.48
2018-12-31T04:56:10.982Z,4.48
2018-12-31T04:57:10.970Z,4.47
2018-12-31T04:58:10.995Z,4.48
2018-12-31T04:59:10.949Z,4.44
2018-12-31T05:00:10.935Z,4.45
2018-12-31T05:01:10.928Z,4.50
2018-12-31T05:02:10.914Z,4.45
2018-12-31T05:03:10.905Z,4.50
2018-12-31T05:04:10.928Z,4.44
2018-12-31T05:05:10.880Z,4.47
2018-12-31T05:06:10.871Z,4.45
2018-12-31T05:07:10.856Z,4.52
2018-12-31T05:08:10.852Z,4.50
2018-12-31T05:09:10.838Z,4.51
2018-12-31T05:10:10.865Z,4.54
2018-12-31T05:11:10.822Z,4.52
2018-12-31T05:12:10.804Z,4.58
2018-12-31T05:13:10.795Z,4.52
2018-12-31T05:14:10.785Z,4.52
2018-12-31T05:15:10.771Z,4.60
2018-12-31T05:16:10.847Z,4.62
2018-12-31T05:17:10.751Z,4.67
2018-12-31T05:18:10.744Z,4.67
2018-12-31T05:19:10.732Z,4.70
2018-12-31T05:20:10.714Z,4.73
2018-12-31T05:21:10.706Z,4.69
2018-12-31T05:22:10.730Z,4.60
2018-12-31T05:23:10.685Z,4.75
2018-12-31T05:24:10.680Z,4.72
2018-12-31T05:25:10.664Z,4.72
2018-12-31T05:26:10.658Z,4.69
2018-12-31T05:27:10.638Z,4.70
2018-12-31T05:28:10.665Z,4.66
2018-12-31T05:29:10.619Z,4.72
2018-12-31T05:30:10.609Z,4.70
2018-12-31T05:31:10.659Z,4.75
2018-12-31T05:32:10.586Z,4.70
2018-12-31T05:33:10.576Z,4.70
2018-12-31T05:34:10.603Z,4.69
2018-12-31T05:35:10.576Z,4.73
2018-12-31T05:36:10.541Z,4.67
2018-12-31T05:37:10.531Z,4.70
2018-12-31T05:38:10.518Z,4.73
2018-12-31T05:39:10.507Z,4.75
2018-12-31T05:40:10.533Z,4.65
2018-12-31T05:41:10.487Z,4.85
2018-12-31T05:42:10.476Z,4.67
2018-12-31T05:43:10.464Z,4.72
2018-12-31T05:44:10.452Z,4.72
2018-12-31T05:45:10.447Z,4.78
2018-12-31T05:46:10.458Z,4.73
2018-12-31T05:47:10.423Z,4.69
2018-12-31T05:48:10.412Z,4.70
2018-12-31T05:49:10.398Z,4.75
2018-12-31T05:50:10.387Z,4.78
2018-12-31T05:51:10.401Z,4.72
2018-12-31T05:52:10.364Z,4.69
2018-12-31T05:53:10.353Z,4.69
2018-12-31T05:54:10.342Z,4.84
2018-12-31T05:55:10.337Z,4.77
2018-12-31T05:56:10.363Z,4.85
2018-12-31T05:57:10.311Z,4.84
2018-12-31T05:58:10.299Z,4.86
2018-12-31T05:59:10.285Z,4.89
2018-12-31T06:00:10.274Z,4.91
2018-12-31T06:01:10.262Z,4.84
2018-12-31T06:02:10.289Z,4.96
2018-12-31T06:03:10.242Z,4.99
2018-12-31T06:04:10.237Z,4.84
2018-12-31T06:05:10.226Z,4.96
2018-12-31T06:06:10.207Z,4.96
2018-12-31T06:07:10.199Z,4.94
2018-12-31T06:08:10.213Z,4.97
2018-12-31T06:09:10.199Z,4.92
2018-12-31T06:10:10.188Z,4.92
2018-12-31T06:11:10.153Z,4.92
2018-12-31T06:12:10.146Z,4.94
2018-12-31T06:13:10.175Z,4.99
2018-12-31T06:14:10.121Z,5.10
2018-12-31T06:15:10.113Z,5.06
2018-12-31T06:16:10.104Z,5.03
2018-12-31T06:17:10.086Z,5.03
2018-12-31T06:18:10.077Z,5.06
2018-12-31T06:19:10.092Z,5.09
2018-12-31T06:20:10.056Z,5.06
2018-12-31T06:21:10.048Z,5.07
2018-12-31T06:22:10.032Z,5.06
2018-12-31T06:23:10.025Z,5.09
2018-12-31T06:24:10.610Z,5.06
2018-12-31T06:25:10.003Z,5.07
2018-12-31T06:26:09.993Z,5.13
2018-12-31T06:27:09.981Z,5.09
2018-12-31T06:28:09.969Z,5.06
2018-12-31T06:29:09.960Z,5.06
2018-12-31T06:30:09.975Z,5.07
2018-12-31T06:31:09.938Z,5.09
2018-12-31T06:32:09.927Z,5.10
2018-12-31T06:33:09.919Z,5.04
2018-12-31T06:34:09.904Z,5.09
2018-12-31T06:35:09.921Z,5.09
2018-12-31T06:36:09.887Z,5.00
2018-12-31T06:37:09.872Z,5.06
2018-12-31T06:38:09.863Z,5.06
2018-12-31T06:39:09.849Z,5.09
2018-12-31T06:40:09.874Z,5.03
2018-12-31T06:41:09.826Z,5.07
2018-12-31T06:42:09.815Z,5.03
2018-12-31T06:43:09.805Z,5.06
2018-12-31T06:44:09.794Z,5.07
2018-12-31T06:45:09.783Z,5.04
2018-12-31T06:46:09.820Z,5.12
2018-12-31T06:47:09.760Z,5.10
2018-12-31T06:48:09.751Z,5.07
2018-12-31T06:49:09.738Z,5.04
2018-12-31T06:50:09.727Z,5.13
2018-12-31T06:51:09.718Z,5.06
2018-12-31T06:52:09.743Z,5.00
2018-12-31T06:53:09.698Z,5.15
2018-12-31T06:54:09.683Z,5.12
2018-12-31T06:55:09.675Z,5.07
2018-12-31T06:56:09.662Z,5.07
2018-12-31T06:57:09.653Z,5.07
2018-12-31T06:58:09.667Z,5.06
2018-12-31T06:59:09.652Z,5.06
2018-12-31T07:00:09.622Z,5.10
2018-12-31T07:01:09.615Z,5.03
2018-12-31T07:02:09.605Z,5.09
2018-12-31T07:03:09.631Z,5.06
2018-12-31T07:04:09.685Z,5.10
2018-12-31T07:05:09.564Z,5.12
2018-12-31T07:06:09.554Z,5.10
2018-12-31T07:07:09.543Z,5.13
2018-12-31T07:08:09.531Z,5.09
2018-12-31T07:09:09.550Z,5.13
2018-12-31T07:10:09.510Z,5.12
2018-12-31T07:11:09.503Z,5.15
2018-12-31T07:12:09.488Z,5.24
2018-12-31T07:13:09.480Z,5.07
2018-12-31T07:14:09.504Z,5.12
2018-12-31T07:15:09.455Z,5.24
2018-12-31T07:16:09.449Z,5.22
2018-12-31T07:17:09.434Z,5.15
2018-12-31T07:18:09.427Z,5.13
2018-12-31T07:19:09.416Z,5.21
2018-12-31T07:20:09.451Z,5.25
2018-12-31T07:21:09.391Z,5.18
2018-12-31T07:22:09.379Z,5.20
2018-12-31T07:23:09.373Z,5.17
2018-12-31T07:24:09.358Z,5.22
2018-12-31T07:25:09.348Z,5.17
2018-12-31T07:26:09.378Z,5.21
2018-12-31T07:27:09.329Z,5.21
2018-12-31T07:28:09.316Z,5.21
2018-12-31T07:29:09.310Z,5.25
2018-12-31T07:30:09.296Z,5.30
2018-12-31T07:31:09.284Z,5.28
2018-12-31T07:32:09.310Z,5.24
2018-12-31T07:33:09.263Z,5.24
2018-12-31T07:34:09.251Z,5.28
2018-12-31T07:35:09.242Z,5.28
2018-12-31T07:36:09.234Z,5.40
2018-12-31T07:37:09.223Z,5.28
2018-12-31T07:38:09.249Z,5.40
2018-12-31T07:39:09.198Z,5.25
2018-12-31T07:40:09.190Z,5.31
2018-12-31T07:41:09.180Z,5.45
2018-12-31T07:42:09.168Z,5.42
2018-12-31T07:43:09.682Z,5.35
2018-12-31T07:44:09.182Z,5.36
2018-12-31T07:45:09.136Z,5.43
2018-12-31T07:46:09.128Z,5.53
2018-12-31T07:47:09.115Z,5.36
2018-12-31T07:48:09.106Z,5.43
2018-12-31T07:49:09.094Z,5.48
2018-12-31T07:50:09.108Z,5.49
2018-12-31T07:51:09.071Z,5.43
2018-12-31T07:52:09.061Z,5.48
2018-12-31T07:53:09.057Z,5.49
2018-12-31T07:54:09.038Z,5.48
2018-12-31T07:55:09.076Z,5.45
2018-12-31T07:56:09.018Z,5.40
2018-12-31T07:57:09.007Z,5.45
2018-12-31T07:58:09.004Z,5.49
2018-12-31T07:59:08.991Z,5.43
2018-12-31T08:00:08.984Z,5.45
2018-12-31T08:01:08.991Z,5.49
2018-12-31T08:02:08.955Z,5.46
2018-12-31T08:03:08.943Z,5.46
2018-12-31T08:04:08.932Z,5.48
2018-12-31T08:05:08.921Z,5.51
2018-12-31T08:06:08.952Z,5.45
2018-12-31T08:07:08.899Z,5.53
2018-12-31T08:08:08.889Z,5.58
2018-12-31T08:09:08.878Z,5.58
2018-12-31T08:10:08.867Z,5.63
2018-12-31T08:11:08.855Z,5.67
2018-12-31T08:12:08.872Z,5.65
2018-12-31T08:13:08.846Z,5.64
2018-12-31T08:14:08.823Z,5.71
2018-12-31T08:15:08.816Z,5.54
2018-12-31T08:16:08.801Z,5.71
2018-12-31T08:17:08.828Z,5.57
2018-12-31T08:18:08.780Z,5.65
2018-12-31T08:19:08.772Z,5.65
2018-12-31T08:20:08.759Z,5.60
2018-12-31T08:21:08.749Z,5.71
2018-12-31T08:22:08.738Z,5.64
2018-12-31T08:23:08.772Z,5.61
2018-12-31T08:24:08.716Z,5.74
2018-12-31T08:25:08.704Z,5.68
2018-12-31T08:26:08.694Z,5.75
2018-12-31T08:27:08.682Z,5.76
2018-12-31T08:28:08.708Z,5.76
2018-12-31T08:29:08.662Z,5.79
2018-12-31T08:30:08.650Z,5.76
2018-12-31T08:31:08.640Z,5.76
2018-12-31T08:32:08.627Z,5.71
2018-12-31T08:33:08.616Z,5.79
2018-12-31T08:34:08.644Z,5.74
2018-12-31T08:35:08.594Z,5.83
2018-12-31T08:36:08.602Z,5.81
2018-12-31T08:37:08.575Z,5.82
2018-12-31T08:38:08.563Z,5.82
2018-12-31T08:39:08.551Z,5.86
2018-12-31T08:40:08.576Z,5.78
2018-12-31T08:41:08.528Z,5.74
2018-12-31T08:42:08.519Z,5.71
2018-12-31T08:43:08.506Z,5.79
2018-12-31T08:44:08.494Z,5.81
2018-12-31T08:45:08.510Z,5.71
2018-12-31T08:46:08.495Z,5.83
2018-12-31T08:47:08.462Z,5.81
2018-12-31T08:48:08.451Z,5.86
2018-12-31T08:49:08.444Z,5.89
2018-12-31T08:50:08.453Z,5.96
2018-12-31T08:51:08.418Z,5.93
2018-12-31T08:52:08.414Z,5.93
2018-12-31T08:53:08.394Z,5.91
2018-12-31T08:54:08.385Z,5.93
2018-12-31T08:55:08.414Z,5.94
2018-12-31T08:56:08.361Z,5.96
2018-12-31T08:57:08.365Z,6.03
2018-12-31T08:58:08.339Z,6.06
2018-12-31T08:59:08.350Z,5.97
2018-12-31T09:00:08.318Z,6.03
2018-12-31T09:01:08.331Z,6.06
2018-12-31T09:02:08.297Z,6.01
2018-12-31T09:03:08.283Z,5.99
2018-12-31T09:04:08.274Z,6.03
2018-12-31T09:05:08.261Z,6.03
2018-12-31T09:06:08.277Z,6.00
2018-12-31T09:07:08.241Z,6.11
2018-12-31T09:08:08.229Z,6.12
2018-12-31T09:09:08.219Z,6.21
2018-12-31T09:10:08.207Z,6.12
2018-12-31T09:11:08.233Z,6.14
2018-12-31T09:12:08.188Z,6.11
2018-12-31T09:13:08.183Z,6.22
2018-12-31T09:14:08.163Z,6.30
2018-12-31T09:15:08.152Z,6.14
2018-12-31T09:16:08.145Z,6.12
2018-12-31T09:17:08.265Z,6.22
2018-12-31T09:18:08.177Z,6.11
2018-12-31T09:19:08.171Z,6.14
2018-12-31T09:20:08.161Z,6.12
2018-12-31T09:21:08.120Z,6.19
2018-12-31T09:22:08.117Z,6.15
2018-12-31T09:23:08.106Z,6.14
2018-12-31T09:24:08.097Z,6.12
2018-12-31T09:25:08.046Z,6.11
2018-12-31T09:26:08.032Z,6.12
2018-12-31T09:27:08.085Z,6.11
2018-12-31T09:28:08.029Z,6.14
2018-12-31T09:29:08.036Z,6.14
2018-12-31T09:30:07.992Z,6.14
2018-12-31T09:31:08.011Z,6.18
2018-12-31T09:32:08.029Z,6.18
2018-12-31T09:33:07.992Z,6.17
2018-12-31T09:34:07.997Z,6.12
2018-12-31T09:35:07.938Z,6.19
2018-12-31T09:36:07.925Z,6.17
2018-12-31T09:37:07.913Z,6.19
2018-12-31T09:38:07.939Z,6.28
2018-12-31T09:39:07.891Z,6.22
2018-12-31T09:40:07.879Z,6.28
2018-12-31T09:41:07.868Z,6.33
2018-12-31T09:42:07.860Z,6.38
2018-12-31T09:43:07.847Z,6.43
2018-12-31T09:44:07.893Z,6.46
2018-12-31T09:45:07.834Z,6.44
2018-12-31T09:46:07.812Z,6.48
2018-12-31T09:47:07.802Z,6.49
2018-12-31T09:48:07.796Z,6.48
2018-12-31T09:49:07.783Z,6.61
2018-12-31T09:50:07.797Z,6.51
2018-12-31T09:51:07.761Z,6.54
2018-12-31T09:52:07.755Z,6.54
2018-12-31T09:53:07.800Z,6.49
2018-12-31T09:54:07.729Z,6.54
2018-12-31T09:55:07.771Z,6.56
2018-12-31T09:56:07.799Z,6.62
2018-12-31T09:57:07.699Z,6.61
2018-12-31T09:58:07.685Z,6.69
2018-12-31T09:59:07.673Z,6.67
2018-12-31T10:00:07.664Z,6.62
2018-12-31T10:01:07.734Z,6.71
2018-12-31T10:02:07.642Z,6.67
2018-12-31T10:03:07.655Z,6.69
2018-12-31T10:04:07.669Z,6.67
2018-12-31T10:05:07.635Z,6.71
2018-12-31T10:06:07.759Z,6.62
2018-12-31T10:07:07.633Z,6.73
2018-12-31T10:08:07.594Z,6.71
2018-12-31T10:09:07.577Z,6.70
2018-12-31T10:10:07.607Z,6.70
2018-12-31T10:11:07.570Z,6.70
2018-12-31T10:12:07.653Z,6.84
2018-12-31T10:13:07.534Z,6.79
2018-12-31T10:14:07.576Z,6.87
2018-12-31T10:15:07.554Z,6.88
2018-12-31T10:16:07.536Z,6.87
2018-12-31T10:17:07.509Z,6.91
2018-12-31T10:18:07.558Z,6.92
2018-12-31T10:19:07.474Z,6.97
2018-12-31T10:20:07.446Z,6.95
2018-12-31T10:21:07.469Z,6.99
2018-12-31T10:22:07.450Z,6.97
2018-12-31T10:23:07.415Z,6.98
2018-12-31T10:24:07.440Z,7.02
2018-12-31T10:25:07.444Z,6.94
2018-12-31T10:26:07.386Z,7.03
2018-12-31T10:27:07.428Z,7.05
2018-12-31T10:28:07.387Z,7.07
2018-12-31T10:29:07.350Z,7.07
2018-12-31T10:30:07.435Z,7.21
2018-12-31T10:31:07.377Z,7.30
2018-12-31T10:32:07.323Z,7.37
2018-12-31T10:33:07.307Z,7.40
2018-12-31T10:34:07.338Z,7.52
2018-12-31T10:35:07.311Z,7.63
2018-12-31T10:36:07.304Z,7.60
2018-12-31T10:37:07.262Z,7.69
2018-12-31T10:38:07.248Z,7.69
2018-12-31T10:39:07.240Z,7.63
2018-12-31T10:40:07.253Z,7.58
2018-12-31T10:41:07.216Z,7.63
2018-12-31T10:42:07.203Z,7.58
2018-12-31T10:43:07.233Z,7.64
2018-12-31T10:44:07.189Z,7.74
2018-12-31T10:45:07.298Z,7.72
2018-12-31T10:46:07.248Z,7.71
2018-12-31T10:47:07.203Z,7.85
2018-12-31T10:48:07.161Z,7.83
2018-12-31T10:49:07.170Z,7.69
2018-12-31T10:50:07.123Z,7.67
2018-12-31T10:51:07.189Z,7.64
2018-12-31T10:52:08.074Z,7.60
2018-12-31T10:53:07.132Z,7.63
2018-12-31T10:54:07.092Z,7.57
2018-12-31T10:55:07.075Z,7.50
2018-12-31T10:56:07.178Z,7.50
2018-12-31T10:57:07.083Z,7.52
2018-12-31T10:58:07.036Z,7.45
2018-12-31T10:59:07.055Z,7.46
2018-12-31T11:00:07.066Z,7.61
2018-12-31T11:01:07.111Z,7.57
2018-12-31T11:02:07.029Z,7.60
2018-12-31T11:03:06.972Z,7.49
2018-12-31T11:04:06.973Z,7.58
2018-12-31T11:05:06.987Z,7.63
2018-12-31T11:06:06.970Z,7.63
2018-12-31T11:07:06.965Z,7.58
2018-12-31T11:08:06.950Z,7.49
2018-12-31T11:09:06.906Z,7.52
2018-12-31T11:10:06.944Z,7.61
2018-12-31T11:11:06.882Z,7.71
2018-12-31T11:12:06.947Z,7.89
2018-12-31T11:13:06.861Z,8.05
2018-12-31T11:14:06.897Z,8.22
2018-12-31T11:15:06.847Z,8.40
2018-12-31T11:16:06.893Z,8.34
2018-12-31T11:17:06.839Z,8.43
2018-12-31T11:18:06.843Z,8.36
2018-12-31T11:19:06.847Z,8.25
2018-12-31T11:20:06.787Z,8.16
2018-12-31T11:21:06.773Z,8.11
2018-12-31T11:22:06.766Z,8.08
2018-12-31T11:23:06.750Z,8.10
2018-12-31T11:24:06.779Z,8.10
2018-12-31T11:25:06.764Z,8.04
2018-12-31T11:26:06.721Z,8.18
2018-12-31T11:27:06.708Z,8.16
2018-12-31T11:28:06.700Z,8.18
2018-12-31T11:29:06.686Z,8.12
2018-12-31T11:30:06.713Z,8.20
2018-12-31T11:31:06.665Z,8.20
2018-12-31T11:32:06.657Z,8.10
2018-12-31T11:33:06.643Z,8.07
2018-12-31T11:34:06.633Z,8.10
2018-12-31T11:35:06.646Z,8.19
2018-12-31T11:36:06.614Z,8.07
2018-12-31T11:37:06.600Z,8.08
2018-12-31T11:38:06.588Z,8.18
2018-12-31T11:39:06.579Z,8.07
2018-12-31T11:40:06.627Z,8.12
2018-12-31T11:41:06.554Z,8.01
2018-12-31T11:42:06.544Z,8.08
2018-12-31T11:43:06.533Z,8.00
2018-12-31T11:44:06.522Z,7.97
2018-12-31T11:45:06.523Z,7.97
2018-12-31T11:46:06.525Z,7.97
2018-12-31T11:47:06.489Z,7.98
2018-12-31T11:48:06.477Z,7.85
2018-12-31T11:49:06.469Z,7.80
2018-12-31T11:50:06.455Z,7.86
2018-12-31T11:51:06.475Z,7.79
2018-12-31T11:52:06.437Z,7.85
2018-12-31T11:53:06.423Z,7.83
2018-12-31T11:54:06.414Z,7.80
2018-12-31T11:55:06.402Z,7.80
2018-12-31T11:56:06.424Z,7.77
2018-12-31T11:57:06.380Z,7.85
2018-12-31T11:58:06.375Z,7.80
2018-12-31T11:59:06.360Z,7.82
2018-12-31T12:00:06.347Z,7.79
2018-12-31T12:01:06.364Z,7.90
2018-12-31T12:02:06.325Z,7.92
2018-12-31T12:03:06.316Z,7.98
2018-12-31T12:04:06.305Z,8.01
2018-12-31T12:05:06.292Z,8.04
2018-12-31T12:06:06.321Z,8.07
2018-12-31T12:07:06.270Z,8.10
2018-12-31T12:08:06.263Z,8.04
2018-12-31T12:09:06.250Z,8.07
2018-12-31T12:10:06.240Z,8.16
2018-12-31T12:11:06.228Z,8.19
2018-12-31T12:12:06.245Z,8.19
2018-12-31T12:13:06.205Z,8.20
2018-12-31T12:14:06.193Z,8.23
2018-12-31T12:15:06.184Z,8.23
2018-12-31T12:16:06.172Z,8.33
2018-12-31T12:17:06.256Z,8.36
2018-12-31T12:18:06.149Z,8.38
2018-12-31T12:19:06.138Z,8.37
2018-12-31T12:20:06.143Z,8.40
2018-12-31T12:21:06.117Z,8.36
2018-12-31T12:22:06.106Z,8.36
2018-12-31T12:23:06.127Z,8.38
2018-12-31T12:24:06.088Z,8.47
2018-12-31T12:25:06.078Z,8.40
2018-12-31T12:26:06.062Z,8.45
2018-12-31T12:27:06.056Z,8.48
2018-12-31T12:28:06.084Z,8.44
2018-12-31T12:29:06.037Z,8.55
2018-12-31T12:30:06.018Z,8.70
2018-12-31T12:31:06.008Z,8.66
2018-12-31T12:32:05.999Z,8.71
2018-12-31T12:33:05.993Z,8.77
2018-12-31T12:34:06.001Z,8.80
2018-12-31T12:35:05.963Z,8.59
2018-12-31T12:36:05.956Z,8.59
2018-12-31T12:37:05.944Z,8.45
2018-12-31T12:38:05.934Z,8.38
2018-12-31T12:39:05.959Z,8.33
2018-12-31T12:40:05.910Z,8.28
2018-12-31T12:41:05.903Z,8.18
2018-12-31T12:42:05.886Z,8.20
2018-12-31T12:43:05.877Z,8.25
2018-12-31T12:44:05.877Z,8.18
2018-12-31T12:45:05.884Z,8.16
2018-12-31T12:46:05.846Z,8.08
2018-12-31T12:47:05.829Z,8.07
2018-12-31T12:48:05.820Z,8.07
2018-12-31T12:49:05.812Z,8.22
2018-12-31T12:50:05.835Z,8.16
2018-12-31T12:51:05.788Z,8.19
2018-12-31T12:52:05.776Z,8.23
2018-12-31T12:53:05.764Z,8.22
2018-12-31T12:54:05.754Z,8.23
2018-12-31T12:55:05.743Z,8.19
2018-12-31T12:56:05.757Z,8.19
2018-12-31T12:57:05.722Z,8.16
2018-12-31T12:58:05.711Z,8.19
2018-12-31T12:59:05.704Z,8.19
2018-12-31T13:00:05.691Z,8.11
2018-12-31T13:01:05.716Z,8.16
2018-12-31T13:02:05.669Z,8.01
2018-12-31T13:03:05.659Z,8.15
2018-12-31T13:04:05.645Z,8.10
2018-12-31T13:05:05.639Z,8.10
2018-12-31T13:06:05.625Z,8.11
2018-12-31T13:07:05.646Z,8.18
2018-12-31T13:08:05.600Z,8.10
2018-12-31T13:09:05.590Z,8.26
2018-12-31T13:10:05.578Z,8.20
2018-12-31T13:11:05.567Z,8.19
2018-12-31T13:12:05.594Z,8.30
2018-12-31T13:13:05.548Z,8.28
2018-12-31T13:14:05.539Z,8.30
2018-12-31T13:15:05.524Z,8.22
2018-12-31T13:16:05.512Z,8.30
2018-12-31T13:17:05.544Z,8.25
2018-12-31T13:18:05.496Z,8.23